sensor_id;sensor_type;location;lat;lon;timestamp;temperature;humidity
57566;DHT22;63999;43.882;-0.310;2022-10-13T14:35:45;18.60;82.40
57566;DHT22;63999;43.882;-0.310;2022-10-13T14:38:11;18.40;82.40
57566;DHT22;63999;43.882;-0.310;2022-10-13T14:40:40;18.40;82.30
57566;DHT22;63999;43.882;-0.310;2022-10-13T14:43:06;18.50;82.30
57566;DHT22;63999;43.882;-0.310;2022-10-13T14:45:32;18.50;82.20
57566;DHT22;63999;43.882;-0.310;2022-10-13T14:47:58;18.50;82.10
57566;DHT22;63999;43.882;-0.310;2022-10-13T14:50:24;18.50;82.20
57566;DHT22;63999;43.882;-0.310;2022-10-13T14:52:49;18.60;82.40
57566;DHT22;63999;43.882;-0.310;2022-10-13T14:55:16;18.60;82.20
57566;DHT22;63999;43.882;-0.310;2022-10-13T14:57:43;18.60;82.10
57566;DHT22;63999;43.882;-0.310;2022-10-13T15:00:09;18.60;81.90
57566;DHT22;63999;43.882;-0.310;2022-10-13T15:02:37;18.60;81.80
57566;DHT22;63999;43.882;-0.310;2022-10-13T15:05:06;18.60;81.80
57566;DHT22;63999;43.882;-0.310;2022-10-13T15:07:33;18.70;81.90
57566;DHT22;63999;43.882;-0.310;2022-10-13T15:10:00;18.70;81.80
57566;DHT22;63999;43.882;-0.310;2022-10-13T15:12:26;18.70;81.70
57566;DHT22;63999;43.882;-0.310;2022-10-13T15:14:52;18.70;81.70
57566;DHT22;63999;43.882;-0.310;2022-10-13T15:17:18;18.70;81.50
57566;DHT22;63999;43.882;-0.310;2022-10-13T15:19:44;18.70;81.50
57566;DHT22;63999;43.882;-0.310;2022-10-13T15:22:09;18.70;81.40
57566;DHT22;63999;43.882;-0.310;2022-10-13T15:24:36;18.70;81.50
57566;DHT22;63999;43.882;-0.310;2022-10-13T15:27:10;18.80;81.40
57566;DHT22;63999;43.882;-0.310;2022-10-13T15:29:38;18.80;81.30
57566;DHT22;63999;43.882;-0.310;2022-10-13T15:32:13;18.80;81.40
57566;DHT22;63999;43.882;-0.310;2022-10-13T15:34:45;18.80;81.20
57566;DHT22;63999;43.882;-0.310;2022-10-13T15:37:11;18.80;81.30
57566;DHT22;63999;43.882;-0.310;2022-10-13T15:39:37;18.80;81.20
57566;DHT22;63999;43.882;-0.310;2022-10-13T15:42:03;18.90;81.20
57566;DHT22;63999;43.882;-0.310;2022-10-13T15:44:36;18.80;81.30
57566;DHT22;63999;43.882;-0.310;2022-10-13T15:47:04;18.90;81.20
57566;DHT22;63999;43.882;-0.310;2022-10-13T15:49:29;18.90;81.10
57566;DHT22;63999;43.882;-0.310;2022-10-13T15:51:55;18.90;81.20
57566;DHT22;63999;43.882;-0.310;2022-10-13T15:54:21;18.90;81.10
57566;DHT22;63999;43.882;-0.310;2022-10-13T15:56:46;18.90;81.00
57566;DHT22;63999;43.882;-0.310;2022-10-13T15:59:12;18.90;80.90
57566;DHT22;63999;43.882;-0.310;2022-10-13T16:01:38;18.90;81.20
57566;DHT22;63999;43.882;-0.310;2022-10-13T16:04:04;18.90;80.90
57566;DHT22;63999;43.882;-0.310;2022-10-13T16:06:30;19.00;80.80
57566;DHT22;63999;43.882;-0.310;2022-10-13T16:08:58;18.90;80.80
57566;DHT22;63999;43.882;-0.310;2022-10-13T16:11:25;19.00;80.80
57566;DHT22;63999;43.882;-0.310;2022-10-13T16:13:52;19.00;80.70
57566;DHT22;63999;43.882;-0.310;2022-10-13T16:16:18;19.00;80.70
57566;DHT22;63999;43.882;-0.310;2022-10-13T16:18:44;19.00;80.70
57566;DHT22;63999;43.882;-0.310;2022-10-13T16:21:14;19.00;80.70
57566;DHT22;63999;43.882;-0.310;2022-10-13T16:23:40;19.00;80.60
57566;DHT22;63999;43.882;-0.310;2022-10-13T16:26:06;19.00;80.60
57566;DHT22;63999;43.882;-0.310;2022-10-13T16:28:33;19.10;80.60
57566;DHT22;63999;43.882;-0.310;2022-10-13T16:31:07;19.20;80.50
57566;DHT22;63999;43.882;-0.310;2022-10-13T16:33:34;19.20;80.30
57566;DHT22;63999;43.882;-0.310;2022-10-13T16:36:08;19.20;80.30
57566;DHT22;63999;43.882;-0.310;2022-10-13T16:38:35;19.10;80.20
57566;DHT22;63999;43.882;-0.310;2022-10-13T16:41:06;19.10;80.20
57566;DHT22;63999;43.882;-0.310;2022-10-13T16:43:32;19.10;80.10
57566;DHT22;63999;43.882;-0.310;2022-10-13T16:46:03;19.10;80.20
57566;DHT22;63999;43.882;-0.310;2022-10-13T16:48:31;19.10;80.20
57566;DHT22;63999;43.882;-0.310;2022-10-13T16:50:57;19.10;80.20
57566;DHT22;63999;43.882;-0.310;2022-10-13T16:53:24;19.10;80.10
57566;DHT22;63999;43.882;-0.310;2022-10-13T16:55:50;19.10;80.00
57566;DHT22;63999;43.882;-0.310;2022-10-13T16:58:16;19.10;80.00
57566;DHT22;63999;43.882;-0.310;2022-10-13T17:00:45;19.10;80.10
57566;DHT22;63999;43.882;-0.310;2022-10-13T17:03:11;19.10;80.00
57566;DHT22;63999;43.882;-0.310;2022-10-13T17:05:37;19.10;80.10
57566;DHT22;63999;43.882;-0.310;2022-10-13T17:08:03;19.10;80.00
57566;DHT22;63999;43.882;-0.310;2022-10-13T17:10:29;19.10;80.00
57566;DHT22;63999;43.882;-0.310;2022-10-13T17:12:55;19.10;80.00
57566;DHT22;63999;43.882;-0.310;2022-10-13T17:15:21;19.10;80.00
57566;DHT22;63999;43.882;-0.310;2022-10-13T17:17:47;19.10;79.90
57566;DHT22;63999;43.882;-0.310;2022-10-13T17:20:13;19.10;80.00
57566;DHT22;63999;43.882;-0.310;2022-10-13T17:22:39;19.10;80.00
57566;DHT22;63999;43.882;-0.310;2022-10-13T17:25:06;19.10;80.00
57566;DHT22;63999;43.882;-0.310;2022-10-13T17:27:35;19.10;79.90
57566;DHT22;63999;43.882;-0.310;2022-10-13T17:30:03;19.10;80.10
57566;DHT22;63999;43.882;-0.310;2022-10-13T17:32:29;19.10;80.00
57566;DHT22;63999;43.882;-0.310;2022-10-13T17:34:55;19.10;80.00
57566;DHT22;63999;43.882;-0.310;2022-10-13T17:37:22;19.10;80.00
57566;DHT22;63999;43.882;-0.310;2022-10-13T17:39:48;19.20;80.00
57566;DHT22;63999;43.882;-0.310;2022-10-13T17:42:13;19.10;79.90
57566;DHT22;63999;43.882;-0.310;2022-10-13T17:44:40;19.20;80.00
57566;DHT22;63999;43.882;-0.310;2022-10-13T17:47:07;19.10;80.10
57566;DHT22;63999;43.882;-0.310;2022-10-13T17:49:32;19.20;80.10
57566;DHT22;63999;43.882;-0.310;2022-10-13T17:51:58;19.10;79.90
57566;DHT22;63999;43.882;-0.310;2022-10-13T17:54:24;19.20;79.90
57566;DHT22;63999;43.882;-0.310;2022-10-13T17:56:50;19.20;80.00
57566;DHT22;63999;43.882;-0.310;2022-10-13T17:59:16;19.20;80.00
57566;DHT22;63999;43.882;-0.310;2022-10-13T18:01:43;19.20;80.20
57566;DHT22;63999;43.882;-0.310;2022-10-13T18:04:12;19.20;80.00
57566;DHT22;63999;43.882;-0.310;2022-10-13T18:06:39;19.20;80.10
57566;DHT22;63999;43.882;-0.310;2022-10-13T18:09:07;19.20;80.10
57566;DHT22;63999;43.882;-0.310;2022-10-13T18:11:33;19.20;80.10
57566;DHT22;63999;43.882;-0.310;2022-10-13T18:13:59;19.20;80.20
57566;DHT22;63999;43.882;-0.310;2022-10-13T18:16:25;19.20;80.00
57566;DHT22;63999;43.882;-0.310;2022-10-13T18:18:52;19.20;80.10
57566;DHT22;63999;43.882;-0.310;2022-10-13T18:21:20;19.20;80.10
57566;DHT22;63999;43.882;-0.310;2022-10-13T18:23:53;19.20;80.10
57566;DHT22;63999;43.882;-0.310;2022-10-13T18:26:21;19.20;80.10
57566;DHT22;63999;43.882;-0.310;2022-10-13T18:28:49;19.20;80.20
57566;DHT22;63999;43.882;-0.310;2022-10-13T18:31:19;19.20;80.30
57566;DHT22;63999;43.882;-0.310;2022-10-13T18:33:46;19.20;80.10
57566;DHT22;63999;43.882;-0.310;2022-10-13T18:36:16;19.20;80.10
57566;DHT22;63999;43.882;-0.310;2022-10-13T18:38:44;19.20;80.20
57566;DHT22;63999;43.882;-0.310;2022-10-13T18:41:12;19.20;80.20
57566;DHT22;63999;43.882;-0.310;2022-10-13T18:43:41;19.20;80.20
57566;DHT22;63999;43.882;-0.310;2022-10-13T18:46:09;19.20;80.20
57566;DHT22;63999;43.882;-0.310;2022-10-13T18:48:35;19.20;80.10
57566;DHT22;63999;43.882;-0.310;2022-10-13T18:51:06;19.20;80.20
57566;DHT22;63999;43.882;-0.310;2022-10-13T18:53:34;19.20;80.30
57566;DHT22;63999;43.882;-0.310;2022-10-13T18:56:05;19.20;80.10
57566;DHT22;63999;43.882;-0.310;2022-10-13T18:58:32;19.20;80.10
57566;DHT22;63999;43.882;-0.310;2022-10-13T19:01:04;19.20;80.10
57566;DHT22;63999;43.882;-0.310;2022-10-13T19:03:31;19.20;80.20
57566;DHT22;63999;43.882;-0.310;2022-10-13T19:05:57;19.20;80.20
57566;DHT22;63999;43.882;-0.310;2022-10-13T19:08:24;19.20;80.20
57566;DHT22;63999;43.882;-0.310;2022-10-13T19:10:50;19.20;80.30
57566;DHT22;63999;43.882;-0.310;2022-10-13T19:13:15;19.20;80.10
57566;DHT22;63999;43.882;-0.310;2022-10-13T19:15:41;19.20;80.20
57566;DHT22;63999;43.882;-0.310;2022-10-13T19:18:07;19.20;80.30
57566;DHT22;63999;43.882;-0.310;2022-10-13T19:20:33;19.20;80.20
57566;DHT22;63999;43.882;-0.310;2022-10-13T19:22:59;19.20;80.70
57566;DHT22;63999;43.882;-0.310;2022-10-13T19:25:25;19.20;80.40
57566;DHT22;63999;43.882;-0.310;2022-10-13T19:27:51;19.20;80.20
57566;DHT22;63999;43.882;-0.310;2022-10-13T19:30:18;19.20;80.80
57566;DHT22;63999;43.882;-0.310;2022-10-13T19:32:44;19.20;80.70
57566;DHT22;63999;43.882;-0.310;2022-10-13T19:35:10;19.20;80.30
57566;DHT22;63999;43.882;-0.310;2022-10-13T19:37:36;19.20;80.30
57566;DHT22;63999;43.882;-0.310;2022-10-13T19:40:04;19.20;80.50
57566;DHT22;63999;43.882;-0.310;2022-10-13T19:42:30;19.20;80.30
57566;DHT22;63999;43.882;-0.310;2022-10-13T19:44:56;19.20;80.50
57566;DHT22;63999;43.882;-0.310;2022-10-13T19:47:23;19.20;80.70
57566;DHT22;63999;43.882;-0.310;2022-10-13T19:49:49;19.20;80.70
57566;DHT22;63999;43.882;-0.310;2022-10-13T19:52:15;19.20;80.70
57566;DHT22;63999;43.882;-0.310;2022-10-13T19:54:40;19.20;81.00
57566;DHT22;63999;43.882;-0.310;2022-10-13T19:57:06;19.20;80.70
57566;DHT22;63999;43.882;-0.310;2022-10-13T19:59:32;19.20;80.50
57566;DHT22;63999;43.882;-0.310;2022-10-13T20:01:58;19.20;80.70
57566;DHT22;63999;43.882;-0.310;2022-10-13T20:04:23;19.20;80.60
57566;DHT22;63999;43.882;-0.310;2022-10-13T20:06:49;19.20;80.60
57566;DHT22;63999;43.882;-0.310;2022-10-13T20:09:16;19.20;80.70
57566;DHT22;63999;43.882;-0.310;2022-10-13T20:11:47;19.20;80.60
57566;DHT22;63999;43.882;-0.310;2022-10-13T20:14:14;19.20;80.70
57566;DHT22;63999;43.882;-0.310;2022-10-13T20:16:40;19.20;80.50
57566;DHT22;63999;43.882;-0.310;2022-10-13T20:19:06;19.20;80.90
57566;DHT22;63999;43.882;-0.310;2022-10-13T20:21:31;19.20;81.40
57566;DHT22;63999;43.882;-0.310;2022-10-13T20:23:57;19.20;80.90
57566;DHT22;63999;43.882;-0.310;2022-10-13T20:26:24;19.20;80.90
57566;DHT22;63999;43.882;-0.310;2022-10-13T20:28:51;19.20;81.70
57566;DHT22;63999;43.882;-0.310;2022-10-13T20:31:19;19.20;81.00
57566;DHT22;63999;43.882;-0.310;2022-10-13T20:33:45;19.20;80.90
57566;DHT22;63999;43.882;-0.310;2022-10-13T20:36:13;19.20;81.20
57566;DHT22;63999;43.882;-0.310;2022-10-13T20:38:40;19.20;80.90
57566;DHT22;63999;43.882;-0.310;2022-10-13T20:43:39;19.20;80.90
57566;DHT22;63999;43.882;-0.310;2022-10-13T20:46:06;19.20;81.00
57566;DHT22;63999;43.882;-0.310;2022-10-13T20:48:35;19.20;81.00
57566;DHT22;63999;43.882;-0.310;2022-10-13T20:51:04;19.20;81.00
57566;DHT22;63999;43.882;-0.310;2022-10-13T20:53:30;19.20;81.10
57566;DHT22;63999;43.882;-0.310;2022-10-13T20:55:58;19.20;81.20
57566;DHT22;63999;43.882;-0.310;2022-10-13T20:58:25;19.20;81.50
57566;DHT22;63999;43.882;-0.310;2022-10-13T21:00:51;19.20;81.30
57566;DHT22;63999;43.882;-0.310;2022-10-13T21:03:17;19.20;81.10
57566;DHT22;63999;43.882;-0.310;2022-10-13T21:05:45;19.20;81.20
57566;DHT22;63999;43.882;-0.310;2022-10-13T21:08:11;19.20;81.20
57566;DHT22;63999;43.882;-0.310;2022-10-13T21:10:37;19.20;81.20
57566;DHT22;63999;43.882;-0.310;2022-10-13T21:13:02;19.20;81.20
57566;DHT22;63999;43.882;-0.310;2022-10-13T21:15:28;19.20;81.20
57566;DHT22;63999;43.882;-0.310;2022-10-13T21:17:54;19.20;81.50
57566;DHT22;63999;43.882;-0.310;2022-10-13T21:20:20;19.20;81.40
57566;DHT22;63999;43.882;-0.310;2022-10-13T21:22:45;19.20;81.40
57566;DHT22;63999;43.882;-0.310;2022-10-13T21:25:11;19.20;81.40
57566;DHT22;63999;43.882;-0.310;2022-10-13T21:27:37;19.20;81.50
57566;DHT22;63999;43.882;-0.310;2022-10-13T21:30:04;19.20;81.30
57566;DHT22;63999;43.882;-0.310;2022-10-13T21:32:30;19.20;81.40
57566;DHT22;63999;43.882;-0.310;2022-10-13T21:34:56;19.20;81.50
57566;DHT22;63999;43.882;-0.310;2022-10-13T21:37:22;19.20;81.40
57566;DHT22;63999;43.882;-0.310;2022-10-13T21:39:48;19.20;81.50
57566;DHT22;63999;43.882;-0.310;2022-10-13T21:42:14;19.20;81.30
57566;DHT22;63999;43.882;-0.310;2022-10-13T21:44:40;19.20;81.40
57566;DHT22;63999;43.882;-0.310;2022-10-13T21:47:06;19.20;81.50
57566;DHT22;63999;43.882;-0.310;2022-10-13T21:49:31;19.20;81.40
57566;DHT22;63999;43.882;-0.310;2022-10-13T21:51:57;19.20;81.50
57566;DHT22;63999;43.882;-0.310;2022-10-13T21:54:23;19.20;81.60
57566;DHT22;63999;43.882;-0.310;2022-10-13T21:56:48;19.20;81.60
57566;DHT22;63999;43.882;-0.310;2022-10-13T21:59:14;19.20;81.70
57566;DHT22;63999;43.882;-0.310;2022-10-13T22:01:41;19.20;81.60
57566;DHT22;63999;43.882;-0.310;2022-10-13T22:04:08;19.20;81.60
57566;DHT22;63999;43.882;-0.310;2022-10-13T22:06:36;19.20;81.60
57566;DHT22;63999;43.882;-0.310;2022-10-13T22:09:03;19.20;81.90
57566;DHT22;63999;43.882;-0.310;2022-10-13T22:11:31;19.20;81.60
57566;DHT22;63999;43.882;-0.310;2022-10-13T22:13:58;19.20;81.80
57566;DHT22;63999;43.882;-0.310;2022-10-13T22:16:29;19.20;81.70
57566;DHT22;63999;43.882;-0.310;2022-10-13T22:18:56;19.20;81.90
57566;DHT22;63999;43.882;-0.310;2022-10-13T22:21:28;19.20;82.20
57566;DHT22;63999;43.882;-0.310;2022-10-13T22:23:59;19.20;81.80
57566;DHT22;63999;43.882;-0.310;2022-10-13T22:26:28;19.20;81.80
57566;DHT22;63999;43.882;-0.310;2022-10-13T22:28:59;19.20;81.80
57566;DHT22;63999;43.882;-0.310;2022-10-13T22:31:25;19.20;81.90
57566;DHT22;63999;43.882;-0.310;2022-10-13T22:33:51;19.20;82.00
57566;DHT22;63999;43.882;-0.310;2022-10-13T22:36:22;19.20;82.30
57566;DHT22;63999;43.882;-0.310;2022-10-13T22:38:50;19.20;82.30
57566;DHT22;63999;43.882;-0.310;2022-10-13T22:41:16;19.20;81.90
57566;DHT22;63999;43.882;-0.310;2022-10-13T22:43:43;19.20;81.90
57566;DHT22;63999;43.882;-0.310;2022-10-13T22:46:17;19.20;81.90
57566;DHT22;63999;43.882;-0.310;2022-10-13T22:48:43;19.20;82.00
57566;DHT22;63999;43.882;-0.310;2022-10-13T22:51:13;19.20;82.30
57566;DHT22;63999;43.882;-0.310;2022-10-13T22:53:40;19.20;82.20
57566;DHT22;63999;43.882;-0.310;2022-10-13T22:56:07;19.20;82.00
57566;DHT22;63999;43.882;-0.310;2022-10-13T22:58:34;19.20;81.90
57566;DHT22;63999;43.882;-0.310;2022-10-13T23:01:09;19.20;82.20
57566;DHT22;63999;43.882;-0.310;2022-10-13T23:03:35;19.20;82.30
57566;DHT22;63999;43.882;-0.310;2022-10-13T23:06:02;19.20;82.20
57566;DHT22;63999;43.882;-0.310;2022-10-13T23:08:28;19.20;82.10
57566;DHT22;63999;43.882;-0.310;2022-10-13T23:10:53;19.20;82.20
57566;DHT22;63999;43.882;-0.310;2022-10-13T23:13:19;19.20;82.30
57566;DHT22;63999;43.882;-0.310;2022-10-13T23:15:45;19.20;82.30
57566;DHT22;63999;43.882;-0.310;2022-10-13T23:18:11;19.20;82.30
57566;DHT22;63999;43.882;-0.310;2022-10-13T23:20:41;19.20;82.30
57566;DHT22;63999;43.882;-0.310;2022-10-13T23:23:07;19.20;82.20
57566;DHT22;63999;43.882;-0.310;2022-10-13T23:25:34;19.10;82.20
57566;DHT22;63999;43.882;-0.310;2022-10-13T23:28:00;19.20;82.20
57566;DHT22;63999;43.882;-0.310;2022-10-13T23:30:25;19.10;82.30
57566;DHT22;63999;43.882;-0.310;2022-10-13T23:32:51;19.10;82.30
57566;DHT22;63999;43.882;-0.310;2022-10-13T23:35:17;19.10;82.30
57566;DHT22;63999;43.882;-0.310;2022-10-13T23:37:43;19.10;82.40
57566;DHT22;63999;43.882;-0.310;2022-10-13T23:40:09;19.10;82.40
57566;DHT22;63999;43.882;-0.310;2022-10-13T23:42:35;19.10;82.40
57566;DHT22;63999;43.882;-0.310;2022-10-13T23:45:01;19.10;82.50
57566;DHT22;63999;43.882;-0.310;2022-10-13T23:47:27;19.20;82.50
57566;DHT22;63999;43.882;-0.310;2022-10-13T23:49:53;19.10;82.50
57566;DHT22;63999;43.882;-0.310;2022-10-13T23:52:19;19.10;82.60
57566;DHT22;63999;43.882;-0.310;2022-10-13T23:54:45;19.20;82.60
57566;DHT22;63999;43.882;-0.310;2022-10-13T23:57:10;19.20;82.60
57566;DHT22;63999;43.882;-0.310;2022-10-13T23:59:36;19.20;82.50
